Time;durP1;ratioP1;P1;durP2;ratioP2;P2;SDS_P1;SDS_P2;PMS_P1;PMS_P2;Temp;Humidity;BMP_temperature;BMP_pressure;BME280_temperature;BME280_humidity;BME280_pressure;Samples;Min_cycle;Max_cycle;Signal;HPM_P1;HPM_P2
2023/03/07 00:29:17;;;;;;;10.25;3.30;;;3.40;99.90;;;;;;6192502;23;20112;-92
2023/03/07 00:31:43;;;;;;;7.75;3.38;;;3.40;99.90;;;;;;6142494;23;20047;-92
2023/03/07 00:34:09;;;;;;;7.60;3.03;;;3.40;99.90;;;;;;6116000;23;20099;-92
2023/03/07 00:36:34;;;;;;;7.13;3.17;;;3.40;99.90;;;;;;6141755;23;20079;-93
2023/03/07 00:39:00;;;;;;;7.27;2.37;;;3.40;99.90;;;;;;6141942;23;20031;-92
2023/03/07 00:41:27;;;;;;;6.22;2.20;;;3.40;99.90;;;;;;6141711;23;20017;-93
2023/03/07 00:43:54;;;;;;;9.38;2.38;;;3.40;99.90;;;;;;6165697;23;20099;-92
2023/03/07 00:46:22;;;;;;;8.98;2.85;;;3.40;99.90;;;;;;6141773;23;20017;-91
2023/03/07 00:48:47;;;;;;;4.88;1.30;;;3.40;99.90;;;;;;6141924;23;20017;-92
2023/03/07 00:51:15;;;;;;;7.07;1.50;;;3.40;99.90;;;;;;6143456;23;20052;-93
2023/03/07 00:53:46;;;;;;;4.65;1.13;;;3.40;99.90;;;;;;6141457;23;20064;-92
2023/03/07 00:56:18;;;;;;;4.47;1.40;;;3.40;99.90;;;;;;6140898;23;20056;-93
2023/03/07 00:58:44;;;;;;;3.95;0.90;;;3.40;99.90;;;;;;6140949;23;20017;-93
2023/03/07 01:01:13;;;;;;;4.63;1.08;;;3.40;99.90;;;;;;6140547;23;20350;-93
2023/03/07 01:03:40;;;;;;;2.45;0.60;;;3.40;99.90;;;;;;6141678;23;20021;-92
2023/03/07 01:06:10;;;;;;;2.67;0.63;;;3.40;99.90;;;;;;6140940;23;20017;-96
2023/03/07 01:08:37;;;;;;;2.92;0.90;;;3.40;99.90;;;;;;6140442;23;20034;-92
2023/03/07 01:11:05;;;;;;;3.08;0.60;;;3.50;99.90;;;;;;6140594;23;20446;-95
2023/03/07 01:13:31;;;;;;;8.13;0.77;;;3.50;99.90;;;;;;6142240;23;20395;-95
2023/03/07 01:16:20;;;;;;;3.30;0.50;;;3.60;99.90;;;;;;6142052;23;20001;-95
2023/03/07 01:18:51;;;;;;;4.05;0.57;;;3.50;99.90;;;;;;6115727;23;20350;-94
2023/03/07 01:21:22;;;;;;;1.20;0.30;;;3.60;99.90;;;;;;6139173;23;20020;-94
2023/03/07 01:23:48;;;;;;;1.10;0.30;;;3.50;99.90;;;;;;6114716;23;20025;-92
2023/03/07 01:26:20;;;;;;;1.42;0.30;;;3.50;99.90;;;;;;6139169;23;20020;-94
2023/03/07 01:28:52;;;;;;;2.35;0.52;;;3.40;99.90;;;;;;6140426;23;20028;-94
2023/03/07 01:31:19;;;;;;;1.42;0.40;;;3.40;99.90;;;;;;6118379;23;20014;-94
2023/03/07 01:33:48;;;;;;;;;;;3.40;99.90;;;;;;6111994;23;20028;-94
2023/03/07 01:36:29;;;;;;;1.30;0.30;;;3.50;99.90;;;;;;6138599;23;19924;-94
2023/03/07 01:39:29;;;;;;;2.88;0.32;;;3.40;99.90;;;;;;6114894;23;20022;-96
2023/03/07 01:41:55;;;;;;;;;;;3.50;99.90;;;;;;6024054;23;20120;-96
2023/03/07 01:44:25;;;;;;;1.75;0.45;;;3.50;99.90;;;;;;6109844;23;20326;-95
2023/03/07 01:47:05;;;;;;;5.53;1.48;;;3.40;99.90;;;;;;6086421;23;20021;-96
2023/03/07 01:49:50;;;;;;;2.33;0.43;;;3.40;99.90;;;;;;6109688;23;20092;-94
2023/03/07 01:52:47;;;;;;;4.45;0.43;;;3.40;99.90;;;;;;6081540;23;20028;-95
2023/03/07 01:55:45;;;;;;;0.80;0.20;;;3.40;99.90;;;;;;6109668;23;20028;-95
2023/03/07 01:58:37;;;;;;;4.05;0.40;;;3.40;99.90;;;;;;6046797;23;20102;-95
2023/03/07 03:51:46;;;;;;;2.30;0.45;;;2.90;99.90;;;;;;6186753;23;20028;-93
2023/03/07 03:54:20;;;;;;;1.98;0.32;;;2.90;99.90;;;;;;6137228;23;20323;-95
2023/03/07 03:56:49;;;;;;;4.25;0.20;;;2.90;99.90;;;;;;6114490;23;20084;-94
2023/03/07 03:59:17;;;;;;;3.95;0.40;;;2.80;99.90;;;;;;6114539;23;20028;-95
2023/03/07 04:01:46;;;;;;;1.75;0.30;;;2.80;99.90;;;;;;6114719;23;20013;-96
2023/03/07 04:04:15;;;;;;;2.10;0.30;;;2.90;99.90;;;;;;6138445;23;20021;-95
2023/03/07 04:06:41;;;;;;;3.00;0.73;;;2.80;99.90;;;;;;6137752;23;20017;-94
2023/03/07 04:09:08;;;;;;;2.92;0.32;;;2.80;99.90;;;;;;6138405;23;20087;-95
2023/03/07 04:11:34;;;;;;;1.40;0.17;;;2.80;99.90;;;;;;6139018;23;20013;-92
2023/03/07 04:14:00;;;;;;;1.13;0.20;;;2.80;99.90;;;;;;6138094;23;20028;-94
2023/03/07 04:16:34;;;;;;;3.20;0.50;;;2.80;99.90;;;;;;6138018;23;20446;-94
2023/03/07 04:19:41;;;;;;;6.60;0.60;;;2.80;99.90;;;;;;6113783;23;20024;-95
2023/03/07 04:22:10;;;;;;;4.35;0.47;;;2.80;99.90;;;;;;6137446;23;20105;-95
2023/03/07 04:24:44;;;;;;;3.80;0.28;;;2.80;99.90;;;;;;6138194;23;20051;-93
2023/03/07 05:12:09;;;;;;;4.45;0.40;;;2.80;99.90;;;;;;6212652;22;20024;-94
2023/03/07 05:14:34;;;;;;;0.45;0.20;;;2.80;99.90;;;;;;6137623;23;20060;-95
2023/03/07 05:17:00;;;;;;;0.60;0.10;;;2.80;99.90;;;;;;6138760;23;20455;-93
2023/03/07 05:19:26;;;;;;;2.90;0.30;;;2.70;99.90;;;;;;6114157;23;20009;-94
2023/03/07 05:27:05;;;;;;;2.58;0.50;;;2.70;99.90;;;;;;6164829;23;19923;-94
2023/03/07 05:29:55;;;;;;;3.08;0.50;;;2.80;99.90;;;;;;6138353;23;20346;-95
2023/03/07 05:32:44;;;;;;;4.03;0.40;;;2.70;99.90;;;;;;6138072;23;20347;-95
2023/03/07 05:57:13;;;;;;;1.50;0.43;;;2.70;99.90;;;;;;6187404;23;20072;-93
2023/03/07 05:59:39;;;;;;;1.33;0.17;;;2.70;99.90;;;;;;6137084;23;20096;-93
2023/03/07 06:02:31;;;;;;;3.20;0.40;;;2.70;99.90;;;;;;6136535;23;20020;-94
2023/03/07 06:05:25;;;;;;;0.38;0.13;;;2.70;99.90;;;;;;6078732;23;20100;-96
2023/03/07 06:07:54;;;;;;;2.90;0.52;;;2.70;99.90;;;;;;6133243;23;20017;-93
2023/03/07 06:10:20;;;;;;;0.10;0.00;;;2.70;99.90;;;;;;6137421;23;20069;-93
2023/03/07 06:13:03;;;;;;;;;;;;;;;;;;;;;
2023/03/07 06:15:30;;;;;;;0.00;0.00;;;2.50;99.90;;;;;;6162360;23;20013;-94
2023/03/07 06:17:56;;;;;;;0.25;0.05;;;2.40;99.90;;;;;;6139369;23;20091;-93
2023/03/07 06:20:22;;;;;;;0.93;0.13;;;2.40;99.90;;;;;;6140380;23;20019;-93
2023/03/07 06:22:50;;;;;;;2.40;0.30;;;2.30;99.90;;;;;;6164609;23;20132;-94
2023/03/07 12:11:50;;;;;;;1.55;0.20;;;4.60;99.90;;;;;;6186242;23;20021;-89
2023/03/07 12:14:36;;;;;;;1.42;0.20;;;4.80;99.90;;;;;;6184944;23;20324;-89
2023/03/07 12:17:25;;;;;;;4.45;0.57;;;4.90;99.90;;;;;;6187166;23;20013;-88
2023/03/07 12:20:24;;;;;;;1.40;0.20;;;5.10;99.90;;;;;;6162808;23;20021;-92
2023/03/07 12:41:25;;;;;;;2.65;0.20;;;5.30;99.90;;;;;;6217316;23;20028;-90
2023/03/07 12:44:02;;;;;;;0.63;0.08;;;5.50;99.90;;;;;;6166911;23;20025;-89
2023/03/07 12:46:50;;;;;;;1.58;0.20;;;5.60;99.90;;;;;;6166206;23;20017;-89
2023/03/07 12:49:16;;;;;;;1.85;0.35;;;5.70;99.90;;;;;;6166849;23;20347;-88
2023/03/07 12:51:51;;;;;;;0.97;0.20;;;5.70;99.90;;;;;;6166983;23;20016;-90
2023/03/07 12:54:37;;;;;;;1.35;0.08;;;5.70;99.90;;;;;;6166392;23;20056;-89
2023/03/07 12:57:42;;;;;;;1.40;0.20;;;5.60;99.90;;;;;;6167733;23;20021;-88
2023/03/07 13:00:20;;;;;;;0.70;0.25;;;5.50;99.90;;;;;;6166082;23;20103;-89
2023/03/07 13:03:27;;;;;;;3.35;0.15;;;5.60;99.90;;;;;;6166716;23;20450;-89
2023/03/07 13:05:56;;;;;;;0.55;0.10;;;5.60;99.90;;;;;;6166949;23;20066;-91
2023/03/07 13:08:23;;;;;;;0.52;0.10;;;5.70;99.90;;;;;;6141368;23;20013;-90
2023/03/07 13:10:52;;;;;;;2.42;0.45;;;5.60;99.90;;;;;;6166634;23;20020;-90
2023/03/07 13:13:43;;;;;;;1.58;0.20;;;5.60;99.90;;;;;;6168075;23;20407;-90
2023/03/07 13:18:40;;;;;;;3.20;0.25;;;5.40;99.90;;;;;;6214239;23;20029;-88
2023/03/07 13:21:09;;;;;;;1.00;0.20;;;5.20;99.90;;;;;;6166065;23;20020;-87
2023/03/07 13:23:35;;;;;;;4.28;0.30;;;5.10;99.90;;;;;;6165878;23;20016;-86
2023/03/07 13:26:08;;;;;;;3.40;0.37;;;4.90;99.90;;;;;;6141679;23;20461;-91
2023/03/07 13:28:37;;;;;;;2.45;0.35;;;4.90;99.90;;;;;;6165743;23;20068;-86
2023/03/07 13:31:15;;;;;;;0.68;0.15;;;4.90;99.90;;;;;;6165739;23;20096;-91
2023/03/07 13:54:49;;;;;;;1.70;0.15;;;4.50;99.90;;;;;;6186562;23;20044;-88
2023/03/07 13:57:17;;;;;;;1.77;0.20;;;4.40;99.90;;;;;;6160671;23;20025;-86
2023/03/07 13:59:48;;;;;;;2.28;0.30;;;4.30;99.90;;;;;;6135909;23;20055;-88
2023/03/07 14:02:16;;;;;;;0.90;0.17;;;4.20;99.90;;;;;;6135931;23;20021;-87
2023/03/07 14:04:48;;;;;;;1.48;0.32;;;4.10;99.90;;;;;;6160379;23;20017;-87
2023/03/07 14:07:32;;;;;;;0.65;0.32;;;4.10;99.90;;;;;;6135793;23;20494;-88
2023/03/07 14:10:20;;;;;;;2.17;0.55;;;4.10;99.90;;;;;;6135506;23;20453;-85
2023/03/07 14:13:13;;;;;;;1.20;0.20;;;4.10;99.90;;;;;;6135600;23;20339;-87
2023/03/07 14:15:43;;;;;;;1.17;0.20;;;4.10;99.90;;;;;;6160456;23;20452;-90
2023/03/07 14:18:34;;;;;;;0.40;0.20;;;4.30;99.90;;;;;;6185582;23;20515;-88
2023/03/07 14:21:33;;;;;;;1.75;0.20;;;4.40;99.90;;;;;;6160458;23;20028;-88
2023/03/07 14:24:22;;;;;;;1.33;0.30;;;4.50;99.90;;;;;;6160196;23;20017;-88
2023/03/07 14:26:56;;;;;;;2.85;0.30;;;4.60;99.90;;;;;;6160140;23;20340;-88
2023/03/07 14:29:28;;;;;;;1.23;0.10;;;4.50;99.90;;;;;;6135480;23;20304;-87
2023/03/07 14:32:18;;;;;;;1.45;0.40;;;4.50;99.90;;;;;;6135789;23;20044;-88
2023/03/07 14:34:56;;;;;;;0.55;0.10;;;4.50;99.90;;;;;;6135645;23;20039;-90
2023/03/07 14:37:31;;;;;;;0.40;0.08;;;4.40;99.90;;;;;;6136063;23;20075;-91
2023/03/07 14:40:27;;;;;;;1.50;0.28;;;4.30;99.90;;;;;;6136414;23;20056;-91
2023/03/07 14:43:21;;;;;;;1.23;0.10;;;4.20;99.90;;;;;;6136146;23;20121;-94
2023/03/07 14:46:19;;;;;;;2.53;0.08;;;4.20;99.90;;;;;;6135096;23;20013;-88
2023/03/07 14:49:07;;;;;;;1.85;0.20;;;4.10;99.90;;;;;;6185100;23;20017;-88
2023/03/07 14:51:39;;;;;;;0.98;0.10;;;4.10;99.90;;;;;;6159848;23;20013;-90
2023/03/07 14:54:13;;;;;;;0.05;0.00;;;4.10;99.90;;;;;;6135081;23;20072;-86
2023/03/07 14:56:39;;;;;;;2.05;0.73;;;4.20;99.90;;;;;;6159424;23;20025;-89
2023/03/07 14:59:06;;;;;;;0.80;0.30;;;4.30;99.90;;;;;;6135465;23;20017;-88
2023/03/07 15:01:35;;;;;;;0.47;0.10;;;4.30;99.90;;;;;;6135390;23;20072;-87
2023/03/07 15:04:10;;;;;;;0.35;0.10;;;4.30;99.90;;;;;;6159714;23;20458;-88
2023/03/07 15:06:43;;;;;;;2.40;0.28;;;4.30;99.90;;;;;;6134960;23;20038;-88
2023/03/07 15:09:16;;;;;;;0.90;0.10;;;4.20;99.90;;;;;;6135440;23;20017;-90
2023/03/07 15:12:06;;;;;;;1.45;0.15;;;4.20;99.90;;;;;;6135848;23;20015;-88
2023/03/07 15:48:28;;;;;;;0.68;0.08;;;3.40;99.90;;;;;;6185945;23;20022;-88
2023/03/07 15:50:57;;;;;;;0.35;0.10;;;3.50;99.90;;;;;;6134581;23;20013;-89
2023/03/07 15:53:37;;;;;;;1.52;0.10;;;3.50;99.90;;;;;;6137387;23;20023;-90
2023/03/07 15:56:21;;;;;;;0.68;0.20;;;3.60;99.90;;;;;;6137574;23;20017;-89
2023/03/07 15:58:47;;;;;;;1.83;0.13;;;3.60;99.90;;;;;;6115933;23;20048;-90
2023/03/07 16:01:20;;;;;;;7.05;4.38;;;3.60;99.90;;;;;;6137116;23;20017;-90
2023/03/07 16:03:54;;;;;;;1.30;0.63;;;3.60;99.90;;;;;;6137426;23;20013;-89
2023/03/07 16:06:43;;;;;;;3.75;2.45;;;3.60;99.90;;;;;;6136938;23;20067;-90
2023/03/07 16:09:12;;;;;;;5.97;4.20;;;3.70;99.90;;;;;;6137207;23;20021;-87
2023/03/07 16:11:40;;;;;;;0.70;0.50;;;3.70;99.90;;;;;;6161715;23;20068;-88
2023/03/07 16:14:43;;;;;;;0.57;0.20;;;3.80;99.90;;;;;;6137038;23;20028;-89
2023/03/07 16:17:18;;;;;;;0.08;0.00;;;3.80;99.90;;;;;;6132707;23;20021;-89
2023/03/07 16:19:44;;;;;;;0.10;0.10;;;3.80;99.90;;;;;;6137182;23;20013;-88
2023/03/07 16:22:14;;;;;;;0.45;0.30;;;3.80;99.90;;;;;;6137245;23;20328;-88
2023/03/07 16:24:40;;;;;;;0.50;0.30;;;3.80;99.90;;;;;;6112969;23;20027;-88
2023/03/07 16:27:21;;;;;;;0.25;0.20;;;3.80;99.90;;;;;;6112554;23;20017;-92
2023/03/07 16:29:47;;;;;;;1.35;0.20;;;3.80;99.90;;;;;;6161941;23;20023;-89
2023/03/07 16:32:19;;;;;;;1.90;0.10;;;3.70;99.90;;;;;;6161318;23;20017;-91
2023/03/07 16:34:45;;;;;;;0.10;0.00;;;3.60;99.90;;;;;;6137323;23;20017;-88
2023/03/07 16:37:12;;;;;;;0.10;0.00;;;3.60;99.90;;;;;;6112722;23;20448;-91
2023/03/07 16:39:38;;;;;;;0.22;0.20;;;3.50;99.90;;;;;;6136757;23;20443;-89
2023/03/07 16:42:06;;;;;;;0.30;0.20;;;3.50;99.90;;;;;;6137186;23;20009;-90
2023/03/07 16:44:38;;;;;;;0.75;0.10;;;3.40;99.90;;;;;;6161623;23;20021;-88
2023/03/07 16:47:13;;;;;;;0.88;0.32;;;3.40;99.90;;;;;;6136363;23;20059;-88
2023/03/07 16:49:39;;;;;;;0.43;0.10;;;3.40;99.90;;;;;;6137246;23;20158;-93
2023/03/07 16:52:05;;;;;;;1.70;0.68;;;3.40;99.90;;;;;;6161508;23;20049;-87
2023/03/07 16:54:31;;;;;;;2.30;0.20;;;3.30;99.90;;;;;;6112744;23;20014;-88
2023/03/07 16:56:57;;;;;;;1.20;0.40;;;3.30;99.90;;;;;;6113029;23;20099;-90
2023/03/07 16:59:28;;;;;;;0.53;0.30;;;3.20;99.90;;;;;;6136721;23;20441;-88
2023/03/07 17:01:54;;;;;;;29.70;11.50;;;3.20;99.90;;;;;;6137053;23;20505;-91
2023/03/07 17:04:19;;;;;;;11.13;4.53;;;3.10;99.90;;;;;;6160918;23;20060;-88
2023/03/07 17:06:45;;;;;;;25.27;10.83;;;3.10;99.90;;;;;;6136848;23;20025;-90
2023/03/07 17:09:12;;;;;;;2.57;1.30;;;3.00;99.90;;;;;;6136892;23;20438;-87
2023/03/07 17:11:44;;;;;;;0.60;0.30;;;3.00;99.90;;;;;;6136662;23;20016;-88
2023/03/07 17:14:11;;;;;;;1.00;0.25;;;2.90;99.90;;;;;;6136626;23;20450;-89
2023/03/07 17:16:41;;;;;;;;;;;2.80;99.90;;;;;;6137146;23;20080;-89
2023/03/07 17:19:45;;;;;;;2.38;1.40;;;2.70;99.90;;;;;;6136404;23;19951;-90
2023/03/07 17:22:16;;;;;;;3.03;1.80;;;2.70;99.90;;;;;;6124797;23;20013;-91
2023/03/07 17:24:50;;;;;;;1.55;0.68;;;2.60;99.90;;;;;;6161061;23;20214;-89
2023/03/07 17:27:17;;;;;;;3.60;0.65;;;2.50;99.90;;;;;;6137190;23;20063;-91
2023/03/07 17:29:50;;;;;;;0.75;0.32;;;2.50;99.90;;;;;;6136539;23;20036;-88
2023/03/07 17:32:20;;;;;;;1.38;0.80;;;2.50;99.90;;;;;;6137300;23;20028;-89
2023/03/07 17:34:46;;;;;;;3.03;1.58;;;2.40;99.90;;;;;;6136654;23;20055;-90
2023/03/07 17:37:15;;;;;;;2.27;0.77;;;2.40;99.90;;;;;;6111491;23;20498;-89
2023/03/07 17:39:59;;;;;;;1.50;0.40;;;2.30;99.90;;;;;;6136726;23;20252;-91
2023/03/07 17:42:49;;;;;;;0.63;0.20;;;2.30;99.90;;;;;;6112533;23;20017;-88
2023/03/07 17:45:26;;;;;;;1.17;0.25;;;2.20;99.90;;;;;;6136798;23;20024;-93
2023/03/07 17:48:16;;;;;;;0.55;0.20;;;2.20;99.90;;;;;;6120206;23;20048;-89
2023/03/07 17:50:48;;;;;;;1.77;0.60;;;2.20;99.90;;;;;;6137318;23;20100;-89
2023/03/07 17:53:16;;;;;;;0.20;0.20;;;2.20;99.90;;;;;;6136575;23;20099;-88
2023/03/07 17:55:47;;;;;;;2.63;0.90;;;2.20;99.90;;;;;;6112464;23;20017;-90
2023/03/07 17:58:13;;;;;;;2.95;1.23;;;2.20;99.90;;;;;;6111995;23;20013;-89
2023/03/07 18:00:39;;;;;;;12.23;4.28;;;2.20;99.90;;;;;;6112177;23;20316;-88
2023/03/07 18:03:08;;;;;;;3.10;0.88;;;2.10;99.90;;;;;;6087965;23;20049;-92
2023/03/07 18:05:33;;;;;;;12.05;4.20;;;2.10;99.90;;;;;;6112356;23;20052;-89
2023/03/07 18:07:59;;;;;;;2.92;1.42;;;2.10;99.90;;;;;;6160744;23;20025;-87
2023/03/07 18:10:27;;;;;;;3.47;1.37;;;2.00;99.90;;;;;;6136268;23;20044;-90
2023/03/07 18:12:53;;;;;;;2.08;0.88;;;2.00;99.90;;;;;;6111809;23;20017;-88
2023/03/07 18:15:21;;;;;;;3.42;1.42;;;2.00;99.90;;;;;;6111759;23;20047;-89
2023/03/07 18:17:48;;;;;;;7.20;3.55;;;2.00;99.90;;;;;;6136013;23;20040;-89
2023/03/07 18:20:14;;;;;;;;;;;2.00;99.90;;;;;;6136610;23;20017;-88
2023/03/07 18:22:40;;;;;;;4.55;1.83;;;2.00;99.90;;;;;;6136014;23;19916;-87
2023/03/07 18:25:09;;;;;;;2.53;0.82;;;2.00;99.90;;;;;;6136203;23;20013;-88
2023/03/07 18:27:35;;;;;;;2.15;0.68;;;1.90;99.90;;;;;;6135729;23;20056;-88
2023/03/07 18:30:02;;;;;;;1.70;0.60;;;1.90;99.90;;;;;;6136247;23;20017;-87
2023/03/07 18:32:29;;;;;;;2.22;0.95;;;1.90;99.90;;;;;;6135961;23;20028;-88
2023/03/07 18:34:55;;;;;;;3.20;0.85;;;1.90;99.90;;;;;;6135873;23;20017;-89
2023/03/07 18:37:21;;;;;;;0.57;0.20;;;2.00;99.90;;;;;;6136028;23;20052;-91
2023/03/07 18:39:47;;;;;;;0.50;0.20;;;1.90;99.90;;;;;;6135381;23;20017;-87
2023/03/07 18:42:13;;;;;;;0.83;0.30;;;2.00;99.90;;;;;;6111511;23;20020;-86
2023/03/07 18:44:40;;;;;;;3.25;0.40;;;1.90;99.90;;;;;;6111575;23;20048;-86
2023/03/07 18:47:09;;;;;;;2.40;0.73;;;2.00;99.90;;;;;;6135712;23;20027;-88
2023/03/07 18:49:35;;;;;;;2.20;0.90;;;1.90;99.90;;;;;;6111400;23;20024;-88
2023/03/07 18:52:04;;;;;;;5.30;1.67;;;1.90;99.90;;;;;;6135596;23;20021;-87
2023/03/07 18:54:30;;;;;;;5.45;1.73;;;1.90;99.90;;;;;;6135814;23;20248;-88
2023/03/07 18:56:56;;;;;;;4.78;1.40;;;1.90;99.90;;;;;;6135507;23;20017;-91
2023/03/07 18:59:21;;;;;;;8.65;3.20;;;1.90;99.90;;;;;;6111591;23;20443;-89
2023/03/07 19:01:48;;;;;;;9.40;3.60;;;1.90;99.90;;;;;;6136005;23;20025;-91
2023/03/07 19:04:14;;;;;;;;;;;1.90;99.90;;;;;;6088569;23;20024;-89
2023/03/07 19:07:02;;;;;;;1.85;0.65;;;1.80;99.90;;;;;;6136037;23;20286;-89
2023/03/07 19:09:58;;;;;;;3.20;0.95;;;1.80;99.90;;;;;;6135815;23;20021;-89
2023/03/07 19:17:41;;;;;;;2.92;0.88;;;1.70;99.90;;;;;;6215798;23;20047;-89
2023/03/07 19:20:07;;;;;;;2.83;0.70;;;1.60;99.90;;;;;;6165284;23;20025;-89
2023/03/07 19:22:33;;;;;;;2.28;0.50;;;1.60;99.90;;;;;;6140720;23;20012;-90
2023/03/07 19:25:04;;;;;;;1.93;0.80;;;1.60;99.90;;;;;;6165664;23;20145;-89
2023/03/07 19:27:33;;;;;;;1.38;0.88;;;1.50;99.90;;;;;;6119317;23;20024;-89
2023/03/07 19:29:59;;;;;;;0.45;0.30;;;1.50;99.90;;;;;;6164514;23;20458;-89
2023/03/07 19:32:27;;;;;;;0.80;0.40;;;1.50;99.90;;;;;;6140820;23;20020;-89
2023/03/07 19:34:55;;;;;;;1.60;0.50;;;1.40;99.90;;;;;;6189892;23;20023;-90
2023/03/07 19:37:27;;;;;;;1.33;0.40;;;1.40;99.90;;;;;;6165590;23;20017;-90
2023/03/07 19:39:59;;;;;;;2.25;0.55;;;1.40;99.90;;;;;;6165677;23;20017;-90
2023/03/07 19:42:25;;;;;;;2.05;0.75;;;1.40;99.90;;;;;;6165533;23;20043;-88
2023/03/07 19:44:53;;;;;;;3.40;0.77;;;1.30;99.90;;;;;;6116344;23;20052;-89
2023/03/07 19:47:21;;;;;;;1.48;0.60;;;1.40;99.90;;;;;;6165299;23;20020;-91
2023/03/07 19:49:47;;;;;;;2.05;0.80;;;1.40;99.90;;;;;;6140307;23;20013;-89
2023/03/07 19:52:15;;;;;;;3.40;0.90;;;1.30;99.90;;;;;;6116058;23;20065;-90
2023/03/07 19:54:51;;;;;;;1.92;0.50;;;1.30;99.90;;;;;;6143435;23;20017;-89
2023/03/07 19:57:45;;;;;;;5.38;2.08;;;1.30;99.90;;;;;;6140136;23;20021;-89
2023/03/07 20:00:12;;;;;;;10.10;3.30;;;1.30;99.90;;;;;;6165352;23;20020;-90
2023/03/07 20:02:38;;;;;;;8.77;3.25;;;1.30;99.90;;;;;;6165319;23;20009;-90
2023/03/07 20:05:04;;;;;;;3.85;1.35;;;1.30;99.90;;;;;;6165179;23;20106;-90
2023/03/07 20:07:30;;;;;;;2.45;0.90;;;1.40;99.90;;;;;;6165054;23;20025;-88
2023/03/07 20:09:56;;;;;;;2.97;0.70;;;1.40;99.90;;;;;;6165416;23;20342;-90
2023/03/07 20:12:22;;;;;;;1.97;0.60;;;1.40;99.90;;;;;;6165531;23;20016;-89
2023/03/07 20:14:51;;;;;;;3.60;0.70;;;1.40;99.90;;;;;;6140433;23;20016;-89
2023/03/07 20:17:17;;;;;;;1.02;0.50;;;1.40;99.90;;;;;;6141265;23;20024;-91
2023/03/07 20:19:43;;;;;;;1.73;0.77;;;1.40;99.90;;;;;;6116517;23;20021;-90
2023/03/07 20:22:08;;;;;;;5.40;1.20;;;1.40;99.90;;;;;;6141185;23;20016;-89
2023/03/07 20:24:36;;;;;;;3.28;0.90;;;1.40;99.90;;;;;;6117110;23;20013;-90
2023/03/07 20:27:02;;;;;;;3.42;0.98;;;1.40;99.90;;;;;;6140255;23;20438;-89
2023/03/07 20:29:28;;;;;;;3.05;0.90;;;1.40;99.90;;;;;;6164940;23;20024;-90
2023/03/07 20:31:54;;;;;;;4.70;1.20;;;1.30;99.90;;;;;;6164445;23;20016;-90
2023/03/07 20:34:20;;;;;;;3.42;1.00;;;1.30;99.90;;;;;;6164391;23;20477;-89
2023/03/07 20:36:46;;;;;;;2.72;1.10;;;1.30;99.90;;;;;;6164395;23;20023;-89
2023/03/07 20:39:13;;;;;;;3.10;0.88;;;1.30;99.90;;;;;;6117387;23;20021;-89
2023/03/07 20:41:40;;;;;;;2.03;0.70;;;1.30;99.90;;;;;;6166529;23;20047;-91
2023/03/07 20:44:09;;;;;;;4.13;0.77;;;1.30;99.90;;;;;;6166423;23;20017;-90
2023/03/07 20:46:37;;;;;;;3.80;1.35;;;1.30;99.90;;;;;;6142664;23;20112;-90
2023/03/07 20:49:04;;;;;;;3.25;1.20;;;1.20;99.90;;;;;;6141960;23;20055;-90
2023/03/07 20:51:33;;;;;;;3.15;1.10;;;1.30;99.90;;;;;;6142786;23;20031;-90
2023/03/07 20:54:10;;;;;;;2.95;0.90;;;1.20;99.90;;;;;;6166664;23;20108;-90
2023/03/07 20:56:38;;;;;;;2.95;0.90;;;1.20;99.90;;;;;;6166734;23;20028;-90
2023/03/07 20:59:04;;;;;;;3.17;1.00;;;1.10;99.90;;;;;;6166696;23;20088;-92
2023/03/07 21:01:32;;;;;;;3.60;1.33;;;1.20;99.90;;;;;;6167048;23;20059;-90
2023/03/07 21:04:10;;;;;;;1.83;0.90;;;1.10;99.90;;;;;;6166733;23;20244;-91
2023/03/07 21:06:41;;;;;;;2.67;0.90;;;1.10;99.90;;;;;;6166666;23;20020;-90
2023/03/07 21:09:14;;;;;;;2.17;0.70;;;1.10;99.90;;;;;;6165986;23;20021;-93
2023/03/07 21:11:50;;;;;;;1.90;0.60;;;1.10;99.90;;;;;;6142298;23;20048;-91
2023/03/07 21:14:18;;;;;;;2.03;0.60;;;1.10;99.90;;;;;;6167174;23;20082;-90
2023/03/07 21:16:43;;;;;;;2.50;0.90;;;1.10;99.90;;;;;;6166727;23;20095;-89
2023/03/07 21:19:25;;;;;;;1.77;0.57;;;1.10;99.90;;;;;;6165630;23;20485;-90
2023/03/07 21:22:30;;;;;;;;;;;;;;;;;;;;;
2023/03/07 21:25:15;;;;;;;0.70;0.30;;;1.10;99.90;;;;;;6217468;23;20091;-88
2023/03/07 21:27:41;;;;;;;1.13;0.40;;;1.10;99.90;;;;;;6141751;23;20059;-91
2023/03/07 21:30:53;;;;;;;1.35;0.30;;;1.10;99.90;;;;;;6141714;23;20016;-90
2023/03/07 21:34:30;;;;;;;1.70;0.40;;;1.10;99.90;;;;;;6128281;23;20016;-90
2023/03/07 21:37:12;;;;;;;1.38;0.35;;;1.10;99.90;;;;;;6075710;23;20029;-89
2023/03/07 21:39:41;;;;;;;1.23;0.40;;;1.10;99.90;;;;;;6025460;23;20022;-93
2023/03/07 21:42:09;;;;;;;0.65;0.32;;;1.00;99.90;;;;;;6123809;23;20017;-93
2023/03/07 21:44:35;;;;;;;2.15;0.40;;;1.00;99.90;;;;;;6142765;23;20100;-89
2023/03/07 21:47:01;;;;;;;0.90;0.40;;;1.00;99.90;;;;;;6166019;23;20052;-92
2023/03/07 21:49:46;;;;;;;2.08;0.50;;;1.00;99.90;;;;;;6167013;23;20063;-89
2023/03/07 21:52:12;;;;;;;1.48;0.43;;;0.90;99.90;;;;;;6141336;23;20116;-92
2023/03/07 21:54:38;;;;;;;2.80;0.60;;;0.90;99.90;;;;;;6141884;23;20346;-89
2023/03/07 21:57:03;;;;;;;1.98;0.50;;;0.80;99.90;;;;;;6117572;23;20016;-91
2023/03/07 21:59:32;;;;;;;1.05;0.40;;;0.80;99.90;;;;;;6166271;23;20531;-90
2023/03/07 22:01:58;;;;;;;1.00;0.40;;;0.80;99.90;;;;;;6165923;23;20052;-91
2023/03/07 22:04:23;;;;;;;1.90;0.65;;;0.80;99.90;;;;;;6165747;23;20457;-89
2023/03/07 22:06:50;;;;;;;1.67;0.60;;;0.80;99.90;;;;;;6165851;23;20048;-89
2023/03/07 22:09:16;;;;;;;2.95;0.70;;;0.80;99.90;;;;;;6141602;23;20123;-89
2023/03/07 22:11:42;;;;;;;1.15;0.40;;;0.70;99.90;;;;;;6166140;23;20017;-90
2023/03/07 22:14:07;;;;;;;4.77;0.67;;;0.80;99.90;;;;;;6165623;23;20025;-89
2023/03/07 22:16:33;;;;;;;1.55;0.55;;;0.70;99.90;;;;;;6165997;23;20478;-90
2023/03/07 22:18:59;;;;;;;2.08;0.60;;;0.80;99.90;;;;;;6165751;23;20040;-90
2023/03/07 22:21:25;;;;;;;1.30;0.47;;;0.70;99.90;;;;;;6166153;23;20028;-89
2023/03/07 22:23:59;;;;;;;1.08;0.40;;;0.70;99.90;;;;;;6166523;23;20087;-90
2023/03/07 22:26:27;;;;;;;1.02;0.45;;;0.70;99.90;;;;;;6165643;23;20058;-89
2023/03/07 22:28:53;;;;;;;1.20;0.45;;;0.70;99.90;;;;;;6165753;23;20075;-90
2023/03/07 22:31:19;;;;;;;2.30;0.63;;;0.70;99.90;;;;;;6166246;23;20370;-91
2023/03/07 22:33:45;;;;;;;3.30;0.60;;;0.70;99.90;;;;;;6165773;23;20255;-90
2023/03/07 22:36:12;;;;;;;1.67;0.63;;;0.80;99.90;;;;;;6166242;23;20082;-91
2023/03/07 22:38:39;;;;;;;1.58;0.40;;;0.80;99.90;;;;;;6165757;23;20429;-90
2023/03/07 22:41:09;;;;;;;1.48;0.40;;;0.80;99.90;;;;;;6141589;23;20017;-90
2023/03/07 22:43:36;;;;;;;0.88;0.32;;;0.80;99.90;;;;;;6166106;23;20052;-89
2023/03/07 22:46:03;;;;;;;1.25;0.40;;;0.90;99.90;;;;;;6165513;23;20489;-90
2023/03/07 22:48:29;;;;;;;;;;;0.90;99.90;;;;;;6166340;23;20446;-96
2023/03/07 22:50:55;;;;;;;0.82;0.30;;;0.90;99.90;;;;;;6190890;23;19955;-91
2023/03/07 22:53:21;;;;;;;3.60;0.50;;;1.00;99.90;;;;;;6164997;23;20012;-92
2023/03/07 22:56:02;;;;;;;1.27;0.50;;;1.00;99.90;;;;;;6166248;23;20027;-93
2023/03/07 22:58:34;;;;;;;0.85;0.40;;;1.00;99.90;;;;;;6119056;23;20020;-91
2023/03/07 23:01:56;;;;;;;2.33;0.50;;;0.90;99.90;;;;;;6165829;23;20453;-92
2023/03/07 23:05:26;;;;;;;;;;;;;;;;;;;;;
2023/03/07 23:12:17;;;;;;;;;;;;;;;;;;;;;
2023/03/07 23:15:36;;;;;;;1.92;0.50;;;0.90;99.90;;;;;;6190463;23;20148;-93
2023/03/07 23:23:11;;;;;;;;;;;;;;;;;;;;;
2023/03/07 23:30:07;;;;;;;1.92;0.70;;;0.80;99.90;;;;;;6217146;23;20044;-93
